Time;durP1;ratioP1;P1;durP2;ratioP2;P2;SDS_P1;SDS_P2;PMS_P1;PMS_P2;Temp;Humidity;BMP_temperature;BMP_pressure;BME280_temperature;BME280_humidity;BME280_pressure;Samples;Min_cycle;Max_cycle;Signal;HPM_P1;HPM_P2
2023/01/23 00:00:15;;;;;;;1.70;1.50;;;2.80;98.20;;;;;;5003155;28;20983;-72
2023/01/23 00:02:42;;;;;;;1.67;1.40;;;2.80;98.20;;;;;;5007863;28;20509;-72
2023/01/23 00:05:10;;;;;;;1.67;1.40;;;2.80;98.20;;;;;;5017810;28;20573;-72
2023/01/23 00:07:37;;;;;;;2.10;1.90;;;2.80;98.20;;;;;;5000268;28;20843;-72
2023/01/23 00:10:04;;;;;;;1.70;1.40;;;2.80;98.20;;;;;;5013867;28;20484;-72
2023/01/23 00:12:31;;;;;;;1.70;1.40;;;2.80;98.20;;;;;;4996945;28;20495;-72
2023/01/23 00:15:00;;;;;;;1.70;1.40;;;2.80;98.20;;;;;;5012881;28;20912;-72
2023/01/23 00:17:27;;;;;;;1.70;1.60;;;2.80;98.20;;;;;;4992617;28;20921;-72
2023/01/23 00:19:54;;;;;;;1.63;1.40;;;2.80;98.20;;;;;;5005101;28;20466;-71
2023/01/23 00:22:27;;;;;;;1.70;1.50;;;2.80;98.20;;;;;;4990339;28;20484;-71
2023/01/23 00:24:54;;;;;;;1.70;1.40;;;2.80;98.20;;;;;;4998411;28;20670;-72
2023/01/23 00:27:21;;;;;;;1.70;1.50;;;2.80;98.20;;;;;;4995617;28;20487;-72
2023/01/23 00:29:48;;;;;;;1.70;1.40;;;2.80;98.20;;;;;;5005965;28;20495;-72
2023/01/23 00:32:16;;;;;;;2.37;2.17;;;2.80;98.20;;;;;;4991155;28;20997;-72
2023/01/23 00:34:44;;;;;;;1.67;1.50;;;2.80;98.20;;;;;;4992254;28;21001;-71
2023/01/23 00:37:11;;;;;;;1.67;1.47;;;2.80;98.20;;;;;;4995153;28;20503;-72
2023/01/23 00:39:38;;;;;;;1.67;1.40;;;2.80;98.20;;;;;;5006143;28;20460;-72
2023/01/23 00:42:05;;;;;;;1.70;1.50;;;2.80;98.20;;;;;;4985923;28;20485;-72
2023/01/23 00:44:32;;;;;;;1.80;1.70;;;2.80;98.20;;;;;;5001431;28;20538;-72
2023/01/23 00:46:59;;;;;;;1.70;1.60;;;2.80;98.20;;;;;;4990415;28;20867;-72
2023/01/23 00:49:28;;;;;;;1.60;1.40;;;2.80;98.20;;;;;;5008683;28;20468;-72
2023/01/23 00:51:55;;;;;;;1.63;1.40;;;2.80;98.20;;;;;;4993177;28;21365;-72
2023/01/23 00:54:24;;;;;;;1.70;1.40;;;2.80;98.20;;;;;;5000211;28;20480;-72
2023/01/23 00:56:52;;;;;;;1.60;1.40;;;2.80;98.20;;;;;;4993257;28;20484;-72
2023/01/23 00:59:25;;;;;;;1.67;1.40;;;2.80;98.20;;;;;;5018141;28;20463;-72
2023/01/23 01:01:52;;;;;;;1.60;1.40;;;2.80;98.20;;;;;;4995939;28;20490;-72
2023/01/23 01:04:20;;;;;;;1.63;1.40;;;2.80;98.20;;;;;;5002994;28;21023;-72
2023/01/23 01:06:48;;;;;;;3.37;3.10;;;2.80;98.20;;;;;;4997536;28;20531;-72
2023/01/23 01:09:15;;;;;;;1.70;1.60;;;2.80;98.20;;;;;;4999844;28;20469;-72
2023/01/23 01:11:42;;;;;;;4.67;4.20;;;2.80;98.20;;;;;;4991908;28;20496;-72
2023/01/23 01:14:09;;;;;;;1.67;1.50;;;2.70;98.20;;;;;;5005708;28;20836;-72
2023/01/23 01:16:36;;;;;;;1.70;1.50;;;2.70;98.20;;;;;;4997521;28;21044;-72
2023/01/23 01:19:04;;;;;;;1.70;1.50;;;2.80;98.20;;;;;;4997859;28;20471;-72
2023/01/23 01:21:31;;;;;;;1.70;1.60;;;2.70;98.20;;;;;;5003762;28;20542;-72
2023/01/23 01:23:59;;;;;;;1.67;1.40;;;2.70;98.20;;;;;;4997051;28;20489;-72
2023/01/23 01:26:26;;;;;;;1.60;1.40;;;2.70;98.20;;;;;;4988292;28;21000;-72
2023/01/23 01:28:53;;;;;;;1.67;1.40;;;2.70;98.20;;;;;;5007030;28;20519;-71
2023/01/23 01:31:20;;;;;;;1.63;1.40;;;2.70;98.20;;;;;;4996036;28;21056;-71
2023/01/23 01:33:47;;;;;;;1.70;1.50;;;2.70;98.20;;;;;;5004647;28;20559;-71
2023/01/23 01:36:16;;;;;;;1.67;1.43;;;2.70;98.20;;;;;;4988609;28;20488;-72
2023/01/23 01:38:44;;;;;;;1.70;1.50;;;2.70;98.20;;;;;;5004125;28;20465;-72
2023/01/23 01:41:13;;;;;;;1.70;1.50;;;2.70;98.20;;;;;;5009206;28;20537;-72
2023/01/23 01:43:41;;;;;;;1.70;1.60;;;2.70;98.20;;;;;;5018832;28;20470;-72
2023/01/23 01:46:23;;;;;;;1.70;1.40;;;2.70;98.20;;;;;;4995044;28;20623;-72
2023/01/23 01:48:59;;;;;;;1.60;1.40;;;2.70;98.20;;;;;;5011181;28;20896;-71
2023/01/23 01:51:30;;;;;;;1.60;1.40;;;2.70;98.20;;;;;;5003020;28;20996;-72
2023/01/23 01:54:04;;;;;;;1.70;1.40;;;2.70;98.20;;;;;;5026358;28;20487;-71
2023/01/23 01:56:37;;;;;;;1.63;1.40;;;2.70;98.20;;;;;;4998978;28;20829;-72
2023/01/23 01:59:05;;;;;;;1.67;1.40;;;2.70;98.20;;;;;;5018646;28;20479;-72
2023/01/23 02:01:32;;;;;;;1.70;1.60;;;2.70;98.20;;;;;;4994834;28;20884;-72
2023/01/23 02:04:00;;;;;;;1.70;1.50;;;2.70;98.20;;;;;;5006532;28;20480;-72
2023/01/23 02:06:28;;;;;;;1.60;1.40;;;2.70;98.20;;;;;;5007350;28;20869;-71
2023/01/23 02:09:02;;;;;;;1.67;1.47;;;2.70;98.20;;;;;;5019706;28;20459;-72
2023/01/23 02:11:30;;;;;;;1.67;1.40;;;2.70;98.20;;;;;;5008914;28;20498;-71
2023/01/23 02:13:58;;;;;;;1.67;1.43;;;2.70;98.20;;;;;;5010535;28;20506;-72
2023/01/23 02:16:30;;;;;;;1.60;1.40;;;2.70;98.20;;;;;;4994946;28;20575;-72
2023/01/23 02:19:00;;;;;;;1.60;1.40;;;2.70;98.20;;;;;;5000882;28;20495;-72
2023/01/23 02:21:28;;;;;;;1.67;1.50;;;2.70;98.20;;;;;;5000808;28;20545;-72
2023/01/23 02:24:10;;;;;;;1.70;1.40;;;2.70;98.20;;;;;;5005425;28;20535;-72
2023/01/23 02:26:42;;;;;;;1.70;1.50;;;2.70;98.20;;;;;;5007387;28;20909;-72
2023/01/23 02:29:09;;;;;;;1.70;1.50;;;2.70;98.20;;;;;;5014979;28;20460;-72
2023/01/23 02:31:37;;;;;;;1.70;1.60;;;2.70;98.20;;;;;;5006781;28;20480;-71
2023/01/23 02:34:05;;;;;;;1.70;1.50;;;2.70;98.20;;;;;;5012620;28;20839;-71
2023/01/23 02:36:34;;;;;;;1.70;1.60;;;2.70;98.20;;;;;;4998666;28;20480;-72
2023/01/23 02:39:06;;;;;;;1.70;1.50;;;2.70;98.20;;;;;;5012975;28;20491;-72
2023/01/23 02:41:35;;;;;;;1.70;1.40;;;2.70;98.20;;;;;;5001978;28;20794;-72
2023/01/23 02:44:09;;;;;;;1.63;1.40;;;2.60;98.20;;;;;;5020194;28;20993;-72
2023/01/23 02:46:52;;;;;;;1.67;1.40;;;2.60;98.20;;;;;;4994506;28;21033;-72
2023/01/23 02:49:20;;;;;;;1.70;1.60;;;2.70;98.20;;;;;;4998255;28;20469;-72
2023/01/23 02:51:48;;;;;;;1.67;1.40;;;2.70;98.20;;;;;;4982441;28;20485;-71
2023/01/23 02:54:17;;;;;;;1.70;1.40;;;2.70;98.20;;;;;;5011145;28;20912;-72
2023/01/23 02:56:47;;;;;;;2.00;1.80;;;2.70;98.20;;;;;;4992254;28;20489;-72
2023/01/23 03:02:05;;;;;;;1.70;1.60;;;2.60;98.20;;;;;;4999266;28;20575;-72
2023/01/23 03:04:32;;;;;;;1.70;1.50;;;2.60;98.20;;;;;;5010193;28;20480;-72
2023/01/23 03:06:59;;;;;;;1.70;1.40;;;2.60;98.20;;;;;;5004060;28;20944;-72
2023/01/23 03:09:32;;;;;;;1.70;1.57;;;2.50;98.20;;;;;;5007800;28;20461;-72
2023/01/23 03:12:00;;;;;;;1.70;1.40;;;2.50;98.20;;;;;;5004782;28;20555;-72
2023/01/23 03:14:28;;;;;;;1.70;1.53;;;2.50;98.20;;;;;;5009282;28;20489;-71
2023/01/23 03:16:56;;;;;;;1.67;1.40;;;2.40;98.20;;;;;;4992404;28;21041;-71
2023/01/23 03:19:25;;;;;;;1.70;1.50;;;2.40;98.20;;;;;;5006466;28;20543;-71
2023/01/23 03:21:53;;;;;;;1.70;1.60;;;2.30;98.20;;;;;;4989309;28;20480;-71
2023/01/23 03:24:21;;;;;;;1.63;1.40;;;2.30;98.20;;;;;;5009806;28;20496;-72
2023/01/23 03:26:49;;;;;;;1.70;1.50;;;2.20;98.20;;;;;;4998629;28;20578;-72
2023/01/23 03:32:05;;;;;;;1.70;1.40;;;2.10;98.20;;;;;;4996053;28;20511;-71
2023/01/23 03:34:33;;;;;;;1.70;1.50;;;2.10;98.20;;;;;;5005440;28;20625;-72
2023/01/23 03:37:00;;;;;;;1.67;1.50;;;2.00;98.20;;;;;;4982335;28;20497;-71
2023/01/23 03:42:12;;;;;;;1.63;1.50;;;1.90;98.20;;;;;;4998336;28;20475;-71
2023/01/23 03:44:39;;;;;;;1.60;1.40;;;1.90;98.20;;;;;;4994865;28;20924;-71
2023/01/23 03:47:08;;;;;;;1.70;1.50;;;1.80;98.20;;;;;;4990135;28;20477;-72
2023/01/23 03:49:35;;;;;;;1.60;1.50;;;1.80;98.20;;;;;;5003355;28;20456;-72
2023/01/23 03:52:03;;;;;;;1.60;1.50;;;1.70;98.20;;;;;;4995156;28;20488;-71
2023/01/23 03:54:30;;;;;;;1.67;1.50;;;1.70;98.20;;;;;;5014380;28;20487;-71
2023/01/23 03:56:57;;;;;;;1.67;1.53;;;1.70;98.20;;;;;;5000919;28;20584;-71
2023/01/23 03:59:24;;;;;;;1.70;1.50;;;1.70;98.20;;;;;;5023927;28;20939;-72
2023/01/23 04:01:51;;;;;;;1.70;1.50;;;1.70;98.20;;;;;;4999318;28;20911;-72
2023/01/23 04:04:20;;;;;;;1.70;1.60;;;1.80;98.20;;;;;;4995973;28;20508;-72
2023/01/23 04:06:47;;;;;;;1.70;1.50;;;1.80;98.20;;;;;;4994091;28;20595;-72
2023/01/23 04:09:14;;;;;;;1.63;1.40;;;1.80;98.20;;;;;;4995134;28;20556;-72
2023/01/23 04:11:41;;;;;;;2.40;2.20;;;1.90;98.20;;;;;;4985796;28;21007;-72
2023/01/23 04:14:09;;;;;;;1.70;1.60;;;1.90;98.20;;;;;;4995441;28;20561;-72
2023/01/23 04:16:36;;;;;;;1.70;1.50;;;1.90;98.20;;;;;;4995564;28;20555;-71
2023/01/23 04:19:03;;;;;;;1.80;1.70;;;1.90;98.20;;;;;;4995565;28;20471;-72
2023/01/23 04:21:32;;;;;;;1.70;1.50;;;2.00;98.20;;;;;;5002221;28;20507;-72
2023/01/23 04:23:59;;;;;;;1.63;1.40;;;2.00;98.20;;;;;;5004766;28;20488;-72
2023/01/23 04:26:26;;;;;;;1.63;1.50;;;2.00;98.20;;;;;;4990741;28;20492;-72
2023/01/23 04:28:53;;;;;;;1.70;1.50;;;2.00;98.20;;;;;;4994009;28;20464;-71
2023/01/23 04:31:20;;;;;;;1.63;1.50;;;2.10;98.20;;;;;;5010698;28;20992;-72
2023/01/23 04:33:47;;;;;;;1.70;1.50;;;2.10;98.20;;;;;;4999156;28;20512;-72
2023/01/23 04:36:14;;;;;;;1.70;1.60;;;2.10;98.20;;;;;;5008388;28;20861;-72
2023/01/23 04:38:43;;;;;;;1.70;1.40;;;2.10;98.20;;;;;;4993725;28;21066;-72
2023/01/23 04:41:14;;;;;;;1.67;1.50;;;2.10;98.20;;;;;;4994977;28;20491;-72
2023/01/23 04:43:41;;;;;;;1.60;1.50;;;2.10;98.20;;;;;;5006921;28;20550;-72
2023/01/23 04:46:09;;;;;;;1.70;1.50;;;2.10;98.20;;;;;;4985061;28;20559;-71
2023/01/23 04:48:36;;;;;;;1.70;1.50;;;2.10;98.20;;;;;;5006340;28;20463;-72
2023/01/23 04:51:04;;;;;;;1.70;1.50;;;2.00;98.20;;;;;;4993245;28;20459;-72
2023/01/23 04:53:31;;;;;;;1.70;1.40;;;2.00;98.20;;;;;;5009101;28;20494;-72
2023/01/23 04:55:59;;;;;;;1.63;1.50;;;2.00;98.20;;;;;;4982939;28;20507;-71
2023/01/23 04:58:26;;;;;;;1.60;1.40;;;2.00;98.20;;;;;;5005809;28;20465;-73
2023/01/23 05:00:54;;;;;;;1.70;1.60;;;1.90;98.20;;;;;;4992639;28;20542;-71
2023/01/23 05:03:21;;;;;;;1.70;1.60;;;1.90;98.20;;;;;;4999289;28;20492;-72
2023/01/23 05:05:48;;;;;;;1.63;1.50;;;1.90;98.20;;;;;;4985602;28;20513;-72
2023/01/23 05:08:16;;;;;;;1.70;1.60;;;1.80;98.20;;;;;;5007425;28;20543;-72
2023/01/23 05:10:43;;;;;;;1.70;1.50;;;1.80;98.20;;;;;;4991876;28;20552;-72
2023/01/23 05:13:11;;;;;;;1.70;1.60;;;1.70;98.20;;;;;;4991892;28;20484;-71
2023/01/23 05:15:38;;;;;;;1.80;1.70;;;1.70;98.20;;;;;;4994404;28;20528;-71
2023/01/23 05:18:05;;;;;;;1.70;1.50;;;1.70;98.20;;;;;;4991217;28;20496;-71
2023/01/23 05:20:32;;;;;;;1.70;1.50;;;1.70;98.20;;;;;;4993179;28;20549;-71
2023/01/23 05:22:59;;;;;;;1.70;1.57;;;1.70;98.20;;;;;;4980117;28;20857;-71
2023/01/23 05:25:28;;;;;;;1.70;1.60;;;1.60;98.20;;;;;;4992956;28;20492;-70
2023/01/23 05:27:55;;;;;;;1.63;1.50;;;1.60;98.20;;;;;;4984460;28;21011;-71
2023/01/23 05:30:24;;;;;;;1.63;1.50;;;1.60;98.20;;;;;;5001183;28;20698;-71
2023/01/23 05:32:51;;;;;;;1.70;1.50;;;1.60;98.20;;;;;;4995982;28;21035;-71
2023/01/23 05:35:18;;;;;;;1.70;1.60;;;1.60;98.20;;;;;;5004387;28;20749;-71
2023/01/23 05:37:50;;;;;;;1.70;1.50;;;1.60;98.20;;;;;;4989948;28;20996;-71
2023/01/23 05:40:18;;;;;;;1.70;1.60;;;1.60;98.20;;;;;;4991168;28;20464;-71
2023/01/23 05:42:45;;;;;;;1.67;1.47;;;1.60;98.20;;;;;;4992420;28;20511;-71
2023/01/23 05:45:13;;;;;;;1.60;1.40;;;1.60;98.20;;;;;;4992741;28;20580;-73
2023/01/23 05:47:41;;;;;;;1.70;1.50;;;1.60;98.20;;;;;;4969796;28;20496;-71
2023/01/23 05:50:13;;;;;;;1.70;1.60;;;1.60;98.20;;;;;;4993163;28;20523;-71
2023/01/23 05:52:40;;;;;;;1.70;1.60;;;1.60;98.20;;;;;;4989903;28;20488;-71
2023/01/23 05:55:08;;;;;;;1.67;1.53;;;1.60;98.20;;;;;;4996341;28;20492;-71
2023/01/23 05:57:36;;;;;;;1.60;1.50;;;1.60;98.20;;;;;;4987342;28;20488;-71
2023/01/23 06:00:04;;;;;;;1.63;1.50;;;1.60;98.20;;;;;;5003664;28;20514;-72
2023/01/23 06:02:31;;;;;;;1.70;1.60;;;1.50;98.20;;;;;;4994367;28;20906;-71
2023/01/23 06:04:59;;;;;;;1.67;1.53;;;1.50;98.20;;;;;;4996264;28;20560;-71
2023/01/23 06:07:26;;;;;;;1.63;1.50;;;1.50;98.20;;;;;;4987175;28;20573;-71
2023/01/23 06:09:53;;;;;;;1.60;1.43;;;1.50;98.20;;;;;;5004648;28;20468;-71
2023/01/23 06:12:21;;;;;;;1.70;1.60;;;1.50;98.20;;;;;;4989266;28;20484;-71
2023/01/23 06:14:49;;;;;;;1.70;1.60;;;1.50;98.20;;;;;;5000132;28;21059;-71
2023/01/23 06:17:16;;;;;;;1.67;1.53;;;1.50;98.20;;;;;;4989447;28;20560;-72
2023/01/23 06:19:43;;;;;;;1.60;1.50;;;1.50;98.20;;;;;;5003952;28;20920;-72
2023/01/23 06:22:12;;;;;;;1.70;1.60;;;1.50;98.20;;;;;;4988857;28;20579;-72
2023/01/23 06:24:40;;;;;;;1.70;1.60;;;1.50;98.20;;;;;;4994635;28;20572;-72
2023/01/23 06:27:07;;;;;;;1.70;1.60;;;1.40;98.20;;;;;;4994457;28;20553;-72
2023/01/23 06:29:35;;;;;;;1.70;1.60;;;1.40;98.20;;;;;;5006078;28;20606;-72
2023/01/23 06:32:02;;;;;;;1.87;1.77;;;1.40;98.20;;;;;;4994646;28;20479;-72
2023/01/23 06:34:30;;;;;;;1.70;1.60;;;1.30;98.20;;;;;;5008471;28;20937;-71
2023/01/23 06:36:57;;;;;;;1.70;1.50;;;1.30;98.20;;;;;;4993994;28;20480;-71
2023/01/23 06:39:26;;;;;;;1.70;1.60;;;1.20;98.20;;;;;;5004157;28;20523;-72
2023/01/23 06:41:54;;;;;;;1.70;1.50;;;1.20;98.20;;;;;;4994679;28;20507;-71
2023/01/23 06:44:21;;;;;;;1.80;1.70;;;1.10;98.20;;;;;;5008427;28;20484;-72
2023/01/23 06:46:49;;;;;;;1.70;1.60;;;1.10;98.20;;;;;;4989780;28;20485;-72
2023/01/23 06:49:16;;;;;;;1.70;1.53;;;1.00;98.20;;;;;;4999716;28;20500;-72
2023/01/23 06:51:44;;;;;;;1.70;1.60;;;1.00;98.20;;;;;;4997355;28;20579;-72
2023/01/23 06:54:11;;;;;;;1.70;1.50;;;1.00;98.20;;;;;;5005362;28;20562;-72
2023/01/23 06:56:40;;;;;;;1.63;1.50;;;1.00;98.20;;;;;;4987905;28;20515;-72
2023/01/23 06:59:08;;;;;;;1.70;1.60;;;1.00;98.20;;;;;;4995099;28;20472;-72
2023/01/23 07:01:36;;;;;;;1.70;1.60;;;1.00;98.20;;;;;;4990645;28;20532;-72
2023/01/23 07:04:03;;;;;;;1.70;1.50;;;1.10;98.20;;;;;;4996977;28;20860;-72
2023/01/23 07:06:32;;;;;;;1.70;1.50;;;1.10;98.20;;;;;;4995055;28;20749;-71
2023/01/23 07:09:00;;;;;;;1.63;1.50;;;1.10;98.20;;;;;;5002915;28;20500;-71
2023/01/23 07:11:28;;;;;;;1.70;1.50;;;1.20;98.20;;;;;;4993028;28;20544;-70
2023/01/23 07:13:57;;;;;;;1.90;1.80;;;1.20;98.20;;;;;;5006177;28;20583;-70
2023/01/23 07:16:28;;;;;;;1.67;1.50;;;1.30;98.20;;;;;;4991016;28;20480;-70
2023/01/23 07:18:57;;;;;;;1.63;1.50;;;1.30;98.20;;;;;;5003923;28;20460;-72
2023/01/23 07:21:25;;;;;;;1.70;1.60;;;1.40;98.20;;;;;;4995286;28;20495;-72
2023/01/23 07:23:52;;;;;;;1.67;1.50;;;1.40;98.20;;;;;;5005029;28;20612;-72
2023/01/23 07:26:20;;;;;;;1.63;1.50;;;1.40;98.20;;;;;;4992567;28;20722;-72
2023/01/23 07:28:48;;;;;;;1.70;1.60;;;1.50;98.20;;;;;;5005656;28;20463;-72
2023/01/23 07:31:16;;;;;;;1.67;1.40;;;1.50;98.20;;;;;;4996308;28;20896;-72
2023/01/23 07:33:44;;;;;;;1.70;1.50;;;1.50;98.20;;;;;;5008657;28;20859;-71
2023/01/23 07:36:13;;;;;;;1.67;1.50;;;1.60;98.20;;;;;;4995020;28;22445;-72
2023/01/23 07:38:41;;;;;;;1.70;1.50;;;1.60;98.20;;;;;;5007145;28;20470;-73
2023/01/23 07:41:10;;;;;;;1.70;1.50;;;1.60;98.20;;;;;;4998783;28;20481;-72
2023/01/23 07:43:38;;;;;;;1.70;1.60;;;1.60;98.20;;;;;;5005490;28;20467;-71
2023/01/23 07:46:06;;;;;;;1.60;1.40;;;1.70;98.20;;;;;;4994222;28;20469;-71
2023/01/23 07:48:37;;;;;;;1.60;1.50;;;1.70;98.20;;;;;;5006618;28;20935;-71
2023/01/23 07:51:06;;;;;;;1.60;1.43;;;1.70;98.20;;;;;;4994190;28;20806;-73
2023/01/23 07:53:33;;;;;;;1.63;1.40;;;1.70;98.20;;;;;;4993777;28;20553;-73
2023/01/23 07:56:05;;;;;;;1.63;1.50;;;1.70;98.20;;;;;;4996105;28;20489;-71
2023/01/23 07:58:33;;;;;;;1.67;1.50;;;1.80;98.20;;;;;;5005967;28;20511;-71
2023/01/23 08:01:08;;;;;;;1.63;1.50;;;1.80;98.20;;;;;;4995231;28;20461;-75
2023/01/23 08:03:37;;;;;;;1.67;1.50;;;1.80;98.20;;;;;;5006256;28;20594;-75
2023/01/23 08:06:06;;;;;;;1.67;1.40;;;1.90;98.20;;;;;;4994546;28;20475;-72
2023/01/23 08:08:33;;;;;;;1.70;1.50;;;1.90;98.20;;;;;;5001482;28;20961;-73
2023/01/23 08:11:05;;;;;;;1.80;1.70;;;1.90;98.20;;;;;;4991124;28;20488;-74
2023/01/23 08:13:33;;;;;;;1.63;1.50;;;2.00;98.20;;;;;;5007472;28;20484;-74
2023/01/23 08:16:01;;;;;;;1.60;1.40;;;2.00;98.20;;;;;;4992638;28;20467;-72
2023/01/23 08:18:32;;;;;;;1.70;1.50;;;2.00;98.20;;;;;;5005642;28;20957;-72
2023/01/23 08:21:03;;;;;;;1.63;1.40;;;2.10;98.20;;;;;;4993619;28;20473;-73
2023/01/23 08:23:31;;;;;;;1.60;1.47;;;2.10;98.20;;;;;;5012827;28;20471;-72
2023/01/23 08:26:01;;;;;;;1.67;1.50;;;2.20;98.20;;;;;;5007425;28;20554;-73
2023/01/23 08:28:29;;;;;;;1.70;1.60;;;2.20;98.20;;;;;;4998687;28;20845;-73
2023/01/23 08:31:00;;;;;;;1.70;1.60;;;2.20;98.20;;;;;;5003564;28;20882;-72
2023/01/23 08:33:27;;;;;;;1.60;1.50;;;2.30;98.20;;;;;;5001651;28;21075;-72
2023/01/23 08:35:57;;;;;;;1.67;1.40;;;2.30;98.20;;;;;;4993192;28;20480;-73
2023/01/23 08:38:26;;;;;;;1.60;1.40;;;2.40;98.20;;;;;;5005526;28;20483;-73
2023/01/23 08:40:58;;;;;;;1.70;1.60;;;2.40;98.20;;;;;;5003168;28;20456;-74
2023/01/23 08:43:26;;;;;;;1.63;1.40;;;2.40;98.20;;;;;;5002812;28;21038;-74
2023/01/23 08:45:55;;;;;;;1.70;1.60;;;2.50;98.20;;;;;;4990076;28;20571;-73
2023/01/23 08:48:25;;;;;;;1.70;1.50;;;2.50;98.20;;;;;;4990915;28;20460;-73
2023/01/23 08:50:59;;;;;;;1.70;1.50;;;2.60;98.20;;;;;;4994706;28;20887;-73
2023/01/23 08:53:28;;;;;;;3.70;3.50;;;2.60;98.20;;;;;;4986975;28;20865;-74
2023/01/23 08:56:00;;;;;;;1.70;1.50;;;2.70;98.20;;;;;;4993878;28;20488;-73
2023/01/23 08:58:27;;;;;;;1.70;1.40;;;2.70;98.20;;;;;;4981199;28;20842;-74
2023/01/23 09:00:55;;;;;;;1.63;1.50;;;2.80;98.20;;;;;;4984475;28;20461;-73
2023/01/23 09:03:22;;;;;;;1.70;1.40;;;2.80;98.20;;;;;;4988498;28;21052;-73
2023/01/23 09:05:49;;;;;;;1.70;1.50;;;2.80;98.20;;;;;;4986157;28;20483;-73
2023/01/23 09:08:17;;;;;;;1.70;1.40;;;2.90;98.20;;;;;;4995322;28;20552;-73
2023/01/23 09:10:46;;;;;;;1.70;1.50;;;2.90;98.20;;;;;;4995338;28;20460;-72
2023/01/23 09:13:13;;;;;;;1.67;1.40;;;3.00;98.20;;;;;;4976917;28;20480;-74
2023/01/23 09:15:40;;;;;;;1.63;1.50;;;3.00;98.20;;;;;;4991311;28;20485;-74
2023/01/23 09:18:08;;;;;;;1.70;1.50;;;3.00;98.20;;;;;;4990810;28;20563;-74
2023/01/23 09:20:37;;;;;;;1.80;1.50;;;3.00;98.20;;;;;;4993218;28;20581;-72
2023/01/23 09:23:04;;;;;;;1.67;1.40;;;3.10;98.20;;;;;;4990500;28;21107;-73
2023/01/23 09:25:32;;;;;;;1.70;1.40;;;3.10;98.20;;;;;;5003749;28;21119;-72
2023/01/23 09:28:01;;;;;;;1.70;1.50;;;3.20;98.20;;;;;;4988832;28;20487;-73
2023/01/23 09:30:28;;;;;;;1.60;1.37;;;3.20;98.20;;;;;;4997762;28;20558;-72
2023/01/23 09:32:56;;;;;;;1.63;1.40;;;3.30;98.20;;;;;;5001853;28;20486;-72
2023/01/23 09:35:24;;;;;;;1.67;1.40;;;3.30;98.20;;;;;;5004023;28;21085;-73
2023/01/23 09:38:01;;;;;;;1.63;1.40;;;3.40;98.20;;;;;;4996491;28;21101;-73
2023/01/23 09:40:31;;;;;;;1.63;1.40;;;3.40;98.20;;;;;;4992176;28;20505;-73
2023/01/23 09:43:08;;;;;;;1.63;1.40;;;3.50;98.20;;;;;;4996592;28;20535;-71
2023/01/23 09:45:38;;;;;;;1.67;1.37;;;3.50;98.20;;;;;;5009894;28;20880;-72
2023/01/23 09:48:16;;;;;;;1.93;1.73;;;3.50;98.20;;;;;;4992513;28;20885;-72
2023/01/23 09:50:54;;;;;;;1.67;1.40;;;3.50;98.20;;;;;;5002362;28;20457;-72
2023/01/23 09:53:27;;;;;;;1.70;1.60;;;3.60;98.20;;;;;;4972354;28;20544;-73
2023/01/23 09:56:03;;;;;;;1.70;1.40;;;3.60;98.20;;;;;;4990562;28;21026;-72
2023/01/23 09:58:38;;;;;;;1.60;1.30;;;3.60;98.20;;;;;;4997047;28;20475;-72
2023/01/23 10:01:05;;;;;;;1.67;1.33;;;3.70;98.20;;;;;;4985101;28;20562;-73
2023/01/23 10:03:33;;;;;;;1.70;1.40;;;3.70;98.20;;;;;;5015275;28;20488;-72
2023/01/23 10:06:19;;;;;;;1.70;1.40;;;3.70;98.20;;;;;;5003947;28;20925;-72
2023/01/23 10:09:09;;;;;;;1.67;1.40;;;3.70;98.20;;;;;;4991619;28;20461;-72
2023/01/23 10:11:45;;;;;;;1.67;1.40;;;3.70;98.20;;;;;;4997454;28;20504;-73
2023/01/23 10:14:39;;;;;;;1.70;1.40;;;3.70;98.20;;;;;;5006060;28;20489;-73
2023/01/23 10:17:14;;;;;;;1.70;1.60;;;3.70;98.20;;;;;;4997685;28;20885;-73
2023/01/23 10:20:03;;;;;;;1.70;1.57;;;3.70;98.20;;;;;;5017038;28;20477;-72
2023/01/23 10:22:35;;;;;;;1.60;1.40;;;3.70;98.20;;;;;;4994792;28;20491;-72
2023/01/23 10:25:11;;;;;;;1.70;1.47;;;3.80;98.20;;;;;;4996745;28;20518;-73
2023/01/23 10:27:46;;;;;;;1.60;1.30;;;3.80;98.20;;;;;;4997629;28;20518;-72
2023/01/23 10:30:38;;;;;;;1.70;1.50;;;3.80;98.20;;;;;;5011233;28;20456;-72
2023/01/23 10:33:13;;;;;;;1.60;1.40;;;3.80;98.20;;;;;;4994464;28;20481;-72
2023/01/23 10:35:54;;;;;;;1.70;1.53;;;3.90;98.20;;;;;;5014416;28;20567;-73
2023/01/23 10:38:29;;;;;;;1.70;1.43;;;3.90;98.20;;;;;;4976255;28;20539;-73
2023/01/23 10:41:18;;;;;;;1.70;1.40;;;3.90;98.20;;;;;;5007091;28;20463;-73
2023/01/23 10:43:48;;;;;;;1.70;1.50;;;3.90;98.20;;;;;;5004016;28;20457;-72
2023/01/23 10:46:19;;;;;;;1.70;1.60;;;3.90;98.20;;;;;;4982459;28;20510;-73
2023/01/23 10:48:47;;;;;;;1.70;1.40;;;3.90;98.20;;;;;;5015974;28;20518;-73
2023/01/23 10:51:32;;;;;;;1.67;1.40;;;4.00;98.20;;;;;;4992261;28;20490;-73
2023/01/23 10:54:05;;;;;;;1.70;1.53;;;4.00;98.20;;;;;;4999886;28;20876;-73
2023/01/23 10:56:33;;;;;;;1.70;1.50;;;4.00;98.20;;;;;;4989180;28;20481;-73
2023/01/23 10:59:02;;;;;;;1.67;1.40;;;4.00;98.20;;;;;;4989305;28;20476;-72
2023/01/23 11:01:33;;;;;;;1.70;1.40;;;4.00;98.20;;;;;;5001965;28;20892;-73
2023/01/23 11:04:11;;;;;;;1.60;1.30;;;4.00;98.20;;;;;;5008466;28;20495;-73
2023/01/23 11:06:38;;;;;;;1.60;1.30;;;4.00;98.20;;;;;;4999863;28;20500;-73
2023/01/23 11:09:19;;;;;;;1.70;1.40;;;4.00;98.20;;;;;;5015566;28;20495;-72
2023/01/23 11:12:00;;;;;;;1.70;1.60;;;4.10;98.20;;;;;;4995883;28;20565;-73
2023/01/23 11:14:30;;;;;;;1.70;1.40;;;4.10;98.20;;;;;;5001006;28;20707;-72
2023/01/23 11:17:05;;;;;;;1.70;1.60;;;4.10;98.20;;;;;;4988732;28;20861;-73
2023/01/23 11:19:33;;;;;;;1.70;1.50;;;4.20;98.20;;;;;;5011441;28;20461;-73
2023/01/23 11:22:02;;;;;;;1.60;1.33;;;4.30;98.20;;;;;;4999727;28;20554;-73
2023/01/23 11:24:35;;;;;;;1.63;1.37;;;4.30;98.20;;;;;;5000614;28;20512;-74
2023/01/23 11:27:05;;;;;;;1.63;1.30;;;4.30;98.20;;;;;;4990464;28;20492;-73
2023/01/23 11:29:56;;;;;;;1.70;1.40;;;4.30;98.20;;;;;;5005828;28;20954;-73
2023/01/23 11:32:25;;;;;;;1.70;1.40;;;4.40;98.20;;;;;;4990456;28;20933;-73
2023/01/23 11:35:02;;;;;;;1.67;1.40;;;4.40;98.20;;;;;;5010398;28;20590;-72
2023/01/23 11:37:36;;;;;;;4.17;3.87;;;4.50;98.20;;;;;;4990866;28;20484;-73
2023/01/23 11:40:11;;;;;;;1.70;1.40;;;4.50;98.20;;;;;;5001898;28;20940;-73
2023/01/23 11:42:41;;;;;;;1.63;1.40;;;4.50;98.20;;;;;;5000456;28;20479;-73
2023/01/23 11:45:14;;;;;;;1.60;1.30;;;4.60;98.20;;;;;;5013808;28;21039;-73
2023/01/23 11:48:24;;;;;;;1.60;1.30;;;4.70;98.20;;;;;;5002094;28;20562;-73
2023/01/23 11:50:59;;;;;;;1.60;1.30;;;4.80;98.20;;;;;;4995762;28;20457;-73
2023/01/23 11:53:42;;;;;;;1.60;1.20;;;4.80;98.20;;;;;;5010447;28;20468;-73
2023/01/23 11:56:45;;;;;;;1.70;1.50;;;4.80;98.20;;;;;;4989955;28;20492;-74
2023/01/23 11:59:46;;;;;;;1.60;1.30;;;4.80;98.20;;;;;;4982321;28;20460;-74
2023/01/23 12:02:56;;;;;;;1.60;1.40;;;4.90;98.20;;;;;;5011155;28;20581;-74
2023/01/23 12:05:52;;;;;;;1.60;1.30;;;4.90;98.20;;;;;;4998171;28;20969;-73
2023/01/23 12:08:29;;;;;;;1.63;1.30;;;5.00;98.20;;;;;;4976506;28;20487;-73
2023/01/23 12:11:11;;;;;;;1.60;1.30;;;5.00;98.20;;;;;;4982164;28;20547;-73
2023/01/23 12:13:58;;;;;;;1.63;1.30;;;5.00;98.20;;;;;;5000920;28;20560;-74
2023/01/23 12:16:37;;;;;;;1.70;1.50;;;5.00;98.20;;;;;;4989920;28;20580;-73
2023/01/23 12:19:17;;;;;;;1.67;1.40;;;5.00;98.20;;;;;;5000417;28;20472;-74
2023/01/23 12:21:53;;;;;;;1.70;1.50;;;5.10;98.20;;;;;;4990334;28;20488;-72
2023/01/23 12:24:37;;;;;;;1.67;1.30;;;5.10;98.20;;;;;;4993756;28;20523;-73
2023/01/23 12:27:13;;;;;;;1.70;1.40;;;5.20;98.20;;;;;;4974519;28;20664;-73
2023/01/23 12:30:02;;;;;;;1.67;1.43;;;5.20;98.20;;;;;;5001219;28;20489;-73
2023/01/23 12:32:47;;;;;;;1.70;1.37;;;5.30;98.20;;;;;;4991876;28;20607;-74
2023/01/23 12:35:32;;;;;;;1.70;1.30;;;5.20;98.20;;;;;;5007500;28;20499;-73
2023/01/23 12:38:29;;;;;;;1.60;1.30;;;5.30;98.20;;;;;;4992078;28;20554;-73
2023/01/23 12:41:13;;;;;;;1.63;1.30;;;5.30;98.20;;;;;;4977900;28;20465;-73
2023/01/23 12:43:47;;;;;;;1.70;1.30;;;5.30;98.20;;;;;;4985182;28;20465;-73
2023/01/23 12:46:21;;;;;;;1.60;1.20;;;5.30;98.20;;;;;;4987482;28;20583;-74
2023/01/23 12:48:54;;;;;;;1.63;1.27;;;5.30;98.20;;;;;;5002244;28;20903;-73
2023/01/23 12:51:24;;;;;;;1.60;1.23;;;5.30;98.20;;;;;;4976555;28;20487;-73
2023/01/23 12:53:57;;;;;;;1.60;1.30;;;5.30;98.20;;;;;;4995733;28;20465;-74
2023/01/23 12:56:27;;;;;;;1.70;1.40;;;5.30;98.20;;;;;;4983052;28;20488;-74
2023/01/23 12:59:02;;;;;;;1.70;1.50;;;5.30;98.20;;;;;;4994001;28;20460;-73
2023/01/23 13:01:44;;;;;;;1.70;1.40;;;5.30;98.20;;;;;;4978753;28;20488;-73
2023/01/23 13:04:20;;;;;;;1.70;1.40;;;5.30;98.20;;;;;;4995587;28;20485;-74
2023/01/23 13:07:08;;;;;;;1.60;1.30;;;5.20;98.20;;;;;;4979669;28;20496;-73
2023/01/23 13:09:50;;;;;;;1.60;1.30;;;5.20;98.20;;;;;;4991605;28;20540;-73
2023/01/23 13:12:21;;;;;;;1.60;1.30;;;5.20;98.20;;;;;;4996334;28;20915;-73
2023/01/23 13:14:54;;;;;;;1.60;1.30;;;5.20;98.20;;;;;;4991918;28;20505;-74
2023/01/23 13:17:45;;;;;;;1.70;1.30;;;5.10;98.20;;;;;;4982046;28;20479;-73
2023/01/23 13:23:21;;;;;;;1.70;1.50;;;5.10;98.20;;;;;;4981598;28;20606;-74
2023/01/23 13:25:50;;;;;;;1.67;1.30;;;5.00;98.20;;;;;;4997516;28;20484;-72
2023/01/23 13:28:32;;;;;;;1.70;1.30;;;5.10;98.20;;;;;;4980409;28;20482;-74